Latest Weather Observations for Learmonth

IDW60801

Issued at 8:32 am WST Friday 30 January 2015 (issued every 30 minutes, with the page automatically refreshed every 10 minutes)

About weather observations | Map of weather stations | Latest weather observations for WA | Other Formats
Station Details ID: 005007 Name: LEARMONTH AIRPORT Lat: -22.24 Lon: 114.10 Height: 5.0 m
Data from the previous 72 hours. | See also: Recent months at Learmonth
Date/Time
WST
Temp
°C
App
Temp
°C
Dew
Point
Rel
Hum
%
Delta-T
°C
Wind Press
QNH
hPa
Press
MSL
hPa
Rain
since 9 am
mm
Dir
 
Spd
km/h
Gust
km/h
Spd
kts
Gust
kts
30/08:30am 28.1 28.5 20.9 65 4.8 SSW 20 26 11 14 1007.3 - 0.0
30/08:00am 27.0 27.6 21.3 71 3.8 SSW 20 26 11 14 1007.0 - 0.0
30/07:30am 25.5 26.6 21.3 77 2.8 SSW 17 22 9 12 1006.8 - 0.0
30/07:00am 24.4 25.5 21.2 82 2.1 SSW 17 24 9 13 1006.5 - 0.0
30/06:30am 23.7 25.1 21.1 85 1.7 SSW 15 20 8 11 1006.2 - 0.0
30/06:00am 23.5 24.5 21.1 86 1.6 SW 17 24 9 13 1005.9 1005.8 0.0
30/05:30am 23.4 24.4 21.0 86 1.6 SSW 17 20 9 11 1005.7 - 0.0
30/05:00am 23.5 23.9 20.9 85 1.7 SSW 20 26 11 14 1005.6 - 0.0
30/04:30am 23.7 25.0 20.8 84 1.9 SSW 15 19 8 10 1005.3 - 0.0
30/04:00am 23.9 24.2 20.8 83 2.0 SW 20 26 11 14 1005.5 - 0.0
30/03:30am 23.9 24.2 20.8 83 2.0 SW 20 28 11 15 1005.3 - 0.0
30/03:00am 23.9 24.4 20.8 83 2.0 SW 19 24 10 13 1005.3 1005.2 0.0
30/02:30am 24.0 24.4 21.0 83 2.0 SW 20 28 11 15 1005.2 - 0.0
30/02:00am 23.7 24.1 21.0 85 1.8 SSW 20 26 11 14 1005.6 - 0.0
30/01:30am 23.7 24.3 21.0 85 1.8 SSW 19 26 10 14 1006.2 - 0.0
30/01:00am 23.9 24.2 20.7 82 2.1 SSW 20 28 11 15 1006.4 - 0.0
30/12:30am 24.1 23.6 20.7 81 2.2 SW 24 30 13 16 1006.3 - 0.0
30/12:00am 24.2 23.7 20.7 81 2.3 SW 24 32 13 17 1006.4 1006.3 0.0
 
Date/Time
WST
Temp
°C
App
Temp
°C
Dew
Point
Rel
Hum
%
Delta-T
°C
Wind Press
QNH
hPa
Press
MSL
hPa
Rain
since 9 am
mm
Dir
 
Spd
km/h
Gust
km/h
Spd
kts
Gust
kts
29/11:30pm 24.3 23.8 20.8 81 2.3 SW 24 33 13 18 1006.7 - 0.0
29/11:00pm 24.4 23.5 20.6 79 2.5 SW 26 35 14 19 1007.0 - 0.0
29/10:30pm 24.6 22.8 20.3 77 2.8 SW 30 41 16 22 1006.8 - 0.0
29/10:00pm 24.7 22.9 20.4 77 2.8 SW 30 43 16 23 1006.4 - 0.0
29/09:30pm 24.7 21.6 20.4 77 2.8 SW 37 50 20 27 1006.2 - 0.0
29/09:00pm 24.9 22.6 20.5 76 2.9 SW 33 44 18 24 1005.9 1005.8 0.0
29/08:30pm 25.2 22.5 20.5 75 3.1 SW 35 48 19 26 1005.8 - 0.0
29/08:00pm 25.6 22.9 20.4 73 3.4 SW 35 44 19 24 1005.2 - 0.0
29/07:30pm 26.1 23.4 20.5 71 3.7 SW 35 44 19 24 1004.8 - 0.0
29/07:00pm 27.2 24.5 20.4 66 4.5 SW 35 44 19 24 1004.4 - 0.0
29/06:30pm 28.6 26.4 20.3 60 5.5 WSW 32 43 17 23 1004.1 - 0.0
29/06:00pm 29.6 27.4 20.7 58 5.9 WSW 33 39 18 21 1003.8 1003.7 0.0
29/05:30pm 30.6 28.5 20.5 54 6.7 WSW 32 43 17 23 1003.8 - 0.0
29/05:00pm 30.1 27.3 20.3 55 6.5 WSW 35 46 19 25 1003.7 - 0.0
29/04:30pm 31.4 29.0 20.3 51 7.4 WSW 33 46 18 25 1003.4 - 0.0
29/04:00pm 32.6 30.0 19.9 47 8.4 W 33 46 18 25 1003.5 - 0.0
29/03:30pm 33.3 30.3 19.9 45 8.9 WSW 35 46 19 25 1003.8 - 0.0
29/03:00pm 34.3 30.9 19.9 42 9.6 W 37 46 20 25 1004.0 1003.9 0.0
29/02:30pm 33.7 30.3 19.9 44 9.2 W 37 50 20 27 1004.2 - 0.0
29/02:00pm 33.3 29.6 19.9 45 8.9 W 39 50 21 27 1004.5 - 0.0
29/01:36pm 34.5 30.0 20.0 42 9.7 W 43 46 23 25 1004.8 - 0.0
29/01:30pm 36.2 37.2 18.6 35 11.6 SW 11 19 6 10 1004.9 - 0.0
29/01:00pm 35.8 36.1 17.8 34 11.7 SSW 13 22 7 12 1005.2 - 0.0
29/12:30pm 35.3 34.5 17.9 35 11.3 WSW 19 24 10 13 1005.5 - 0.0
29/12:00pm 34.8 34.6 17.7 36 11.1 S 15 28 8 15 1005.6 1005.5 0.0
29/11:30am 34.2 33.6 17.6 37 10.7 SSW 17 22 9 12 1006.1 - 0.0
29/11:00am 33.8 33.0 18.1 39 10.2 SW 19 30 10 16 1006.4 - 0.0
29/10:30am 32.9 32.7 18.4 42 9.4 SW 17 26 9 14 1006.8 - 0.0
29/10:00am 31.7 30.9 18.4 45 8.6 SSW 20 28 11 15 1007.0 - 0.0
29/09:30am 30.8 29.9 19.0 49 7.7 SSW 22 32 12 17 1006.9 - 0.0
29/09:00am 29.2 28.7 19.9 57 6.1 SW 22 32 12 17 1007.1 1007.0 0.0
29/08:30am 28.0 27.1 19.9 61 5.3 SSW 24 32 13 17 1007.2 - 0.0
29/08:00am 26.8 26.0 20.1 66 4.4 SW 24 32 13 17 1006.8 - 0.0
29/07:30am 25.7 25.0 20.3 72 3.5 SSW 24 32 13 17 1006.7 - 0.0
29/07:00am 24.8 25.1 20.5 77 2.8 SW 19 28 10 15 1006.7 - 0.0
29/06:30am 23.9 24.2 20.5 81 2.2 SW 19 28 10 15 1006.4 - 0.0
29/06:00am 23.7 24.0 20.5 82 2.1 SW 19 28 10 15 1006.1 1006.0 0.0
29/05:30am 23.7 23.9 20.5 82 2.1 SW 20 28 11 15 1005.7 - 0.0
29/05:00am 23.7 23.9 20.5 82 2.1 SW 20 26 11 14 1005.5 - 0.0
29/04:30am 23.8 23.5 20.4 81 2.2 SW 22 30 12 16 1005.4 - 0.0
29/04:00am 23.8 23.5 20.4 81 2.2 SW 22 28 12 15 1005.3 - 0.0
29/03:30am 23.8 23.5 20.4 81 2.2 SW 22 30 12 16 1005.2 - 0.0
29/03:00am 23.8 23.5 20.4 81 2.2 SW 22 30 12 16 1005.2 1005.1 0.0
29/02:30am 23.9 23.6 20.4 81 2.3 SW 22 32 12 17 1005.3 - 0.0
29/02:00am 23.9 23.5 20.2 80 2.4 SW 22 28 12 15 1005.4 - 0.0
29/01:30am 24.1 23.8 20.3 79 2.5 SW 22 30 12 16 1005.4 - 0.0
29/01:00am 24.3 24.4 20.3 78 2.6 SW 20 32 11 17 1005.6 - 0.0
29/12:30am 24.4 22.5 20.1 77 2.8 SSW 30 43 16 23 1006.1 - 0.0
29/12:00am 24.8 23.3 20.2 75 3.0 SW 28 37 15 20 1006.4 1006.3 0.0
 
Date/Time
WST
Temp
°C
App
Temp
°C
Dew
Point
Rel
Hum
%
Delta-T
°C
Wind Press
QNH
hPa
Press
MSL
hPa
Rain
since 9 am
mm
Dir
 
Spd
km/h
Gust
km/h
Spd
kts
Gust
kts
28/11:30pm 24.5 24.1 20.2 77 2.8 SW 22 32 12 17 1006.4 - 0.0
28/11:00pm 24.7 22.8 20.1 75 3.0 SW 30 37 16 20 1006.4 - 0.0
28/10:30pm 24.7 23.9 20.1 75 3.0 SW 24 33 13 18 1006.5 - 0.0
28/10:00pm 24.8 23.1 19.9 74 3.2 SW 28 37 15 20 1006.5 - 0.0
28/09:30pm 25.1 23.5 20.0 73 3.3 WSW 28 39 15 21 1006.2 - 0.0
28/09:00pm 25.2 23.6 20.0 73 3.4 WSW 28 35 15 19 1006.0 1005.9 0.0
28/08:30pm 25.5 23.3 19.6 70 3.8 SW 30 37 16 20 1005.8 - 0.0
28/08:00pm 25.8 23.6 19.6 68 4.0 WSW 30 39 16 21 1005.7 - 0.0
28/07:30pm 26.3 24.5 19.5 66 4.4 WSW 28 37 15 20 1005.3 - 0.0
28/07:00pm 27.0 25.2 19.6 64 4.8 WSW 28 37 15 20 1005.1 - 0.0
28/06:30pm 28.2 25.6 19.4 59 5.7 WSW 32 41 17 22 1004.9 - 0.0
28/06:00pm 29.0 26.2 19.5 56 6.2 WSW 33 41 18 22 1004.8 1004.7 0.0
28/05:30pm 29.6 26.7 19.2 53 6.8 WSW 33 43 18 23 1004.7 - 0.0
28/05:00pm 30.5 27.6 18.8 49 7.6 WSW 32 41 17 22 1004.6 - 0.0
28/04:30pm 31.2 29.0 18.6 47 8.2 WSW 28 39 15 21 1004.5 - 0.0
28/04:00pm 32.1 30.1 18.4 44 8.9 WSW 26 39 14 21 1004.7 - 0.0
28/03:30pm 32.1 29.8 18.4 44 8.9 W 28 37 15 20 1004.7 - 0.0
28/03:00pm 31.9 29.1 18.3 44 8.8 W 30 43 16 23 1004.9 1004.8 0.0
28/02:31pm 32.6 30.1 18.1 42 9.4 W 28 52 15 28 1005.0 - 0.0
28/02:30pm 32.2 30.3 18.5 44 8.9 W 26 35 14 19 1005.1 - 0.0
28/02:00pm 32.3 30.7 18.3 43 9.1 WSW 24 37 13 20 1005.4 - 0.0
28/01:30pm 32.6 31.0 18.4 43 9.2 W 24 37 13 20 1005.6 - 0.0
28/01:00pm 33.1 30.6 18.1 41 9.7 SW 28 37 15 20 1005.9 - 0.0
28/12:30pm 31.8 31.1 18.6 45 8.6 SSW 20 32 11 17 1006.3 - 0.0
28/12:00pm 32.0 31.1 17.7 42 9.2 W 19 26 10 14 1006.6 1006.5 0.0
28/11:30am 31.2 31.2 18.0 45 8.5 WSW 15 22 8 12 1007.0 - 0.0
28/11:00am 30.9 30.1 18.0 46 8.3 WSW 19 28 10 15 1007.2 - 0.0
28/10:30am 29.9 29.9 18.0 48 7.6 SW 15 26 8 14 1007.6 - 0.0
28/10:00am 28.0 27.5 17.9 54 6.4 SW 17 26 9 14 1007.7 - 0.0
28/09:30am 28.2 27.6 18.4 55 6.3 SSW 19 28 10 15 1007.7 - 0.0
28/09:00am 27.6 28.2 18.7 58 5.7 SSW 13 24 7 13 1007.7 1007.6 0.0
28/08:30am 26.1 25.4 18.6 63 4.8 S 20 26 11 14 1007.6 - 0.0
28/08:00am 25.1 23.9 18.5 67 4.2 SSW 22 28 12 15 1007.4 - 0.0
28/07:30am 25.0 23.8 18.5 67 4.1 SSW 22 28 12 15 1007.2 - 0.0
28/07:00am 24.6 24.0 18.8 70 3.7 SSW 20 28 11 15 1007.1 - 0.0
28/06:30am 24.5 24.1 18.9 71 3.6 SSW 19 28 10 15 1006.7 - 0.0
28/06:00am 24.3 23.1 18.5 70 3.7 SSW 22 32 12 17 1006.6 1006.5 0.0
28/05:30am 24.4 23.8 18.9 71 3.5 SSW 20 28 11 15 1006.3 - 0.0
28/05:00am 24.5 23.4 18.7 70 3.7 SW 22 28 12 15 1006.0 - 0.0
28/04:30am 24.3 23.8 19.0 72 3.4 SSW 20 26 11 14 1005.8 - 0.0
28/04:00am 24.3 23.3 18.8 71 3.5 SSW 22 30 12 16 1005.9 - 0.0
28/03:30am 24.3 23.8 19.0 72 3.4 SSW 20 26 11 14 1005.7 - 0.0
28/03:00am 24.5 24.5 19.0 71 3.5 SW 17 24 9 13 1005.8 1005.7 0.0
28/02:30am 24.5 23.6 19.0 71 3.5 SW 22 30 12 16 1005.5 - 0.0
28/02:00am 24.2 23.2 18.9 72 3.4 SW 22 33 12 18 1005.7 - 0.0
28/01:30am 24.1 23.7 18.9 72 3.3 SW 19 24 10 13 1005.6 - 0.0
28/01:00am 24.2 23.3 19.0 72 3.3 SW 22 30 12 16 1005.8 - 0.0
28/12:30am 24.4 23.2 19.3 73 3.3 SW 24 33 13 18 1005.9 - 0.0
28/12:00am 24.3 23.1 19.3 73 3.2 SW 24 33 13 18 1006.2 1006.1 0.0
 
Date/Time
WST
Temp
°C
App
Temp
°C
Dew
Point
Rel
Hum
%
Delta-T
°C
Wind Press
QNH
hPa
Press
MSL
hPa
Rain
since 9 am
mm
Dir
 
Spd
km/h
Gust
km/h
Spd
kts
Gust
kts
27/11:30pm 24.4 23.2 19.3 73 3.3 SW 24 32 13 17 1006.4 - 0.0
27/11:00pm 24.5 23.8 19.4 73 3.3 SW 22 32 12 17 1006.6 - 0.0
27/10:30pm 24.7 23.7 19.6 73 3.3 SW 24 33 13 18 1006.7 - 0.0
27/10:00pm 24.9 24.2 19.5 72 3.5 SW 22 30 12 16 1006.8 - 0.0
27/09:30pm 25.1 25.0 19.9 73 3.4 WSW 20 26 11 14 1006.8 - 0.0
27/09:00pm 25.3 25.1 19.7 71 3.6 WSW 20 28 11 15 1006.5 1006.4 0.0
27/08:30pm 25.5 24.6 19.8 70 3.7 WSW 24 30 13 16 1006.3 - 0.0
27/08:00pm 25.8 24.0 19.5 68 4.1 WSW 28 35 15 19 1006.3 - 0.0
27/07:30pm 26.1 24.2 19.4 66 4.3 WSW 28 35 15 19 1005.9 - 0.0
27/07:00pm 26.8 25.2 19.2 63 4.9 WSW 26 35 14 19 1005.6 - 0.0
27/06:30pm 27.7 25.3 19.0 59 5.6 WSW 30 39 16 21 1005.4 - 0.0
27/06:00pm 28.7 26.3 19.0 55 6.3 WSW 30 43 16 23 1005.2 1005.1 0.0
27/05:30pm 29.6 27.4 18.6 51 7.1 W 28 39 15 21 1005.2 - 0.0
27/05:00pm 30.0 27.4 18.7 50 7.3 WSW 30 41 16 22 1005.2 - 0.0
27/04:30pm 30.5 27.7 18.2 47 7.9 W 30 41 16 22 1005.2 - 0.0
27/04:00pm 31.2 28.8 18.2 46 8.4 W 28 37 15 20 1005.1 - 0.0
27/03:30pm 31.9 29.3 17.9 43 9.0 W 28 37 15 20 1005.3 - 0.0
27/03:00pm 31.7 30.0 18.2 44 8.7 WSW 24 35 13 19 1005.4 1005.3 0.0
27/02:30pm 33.5 32.0 17.7 39 10.2 W 22 35 12 19 1005.4 - 0.0
27/02:00pm 32.4 30.7 18.0 42 9.3 WSW 24 39 13 21 1005.5 - 0.0
27/01:30pm 32.6 31.7 18.1 42 9.4 SW 20 26 11 14 1005.6 - 0.0
27/01:00pm 31.7 30.9 18.0 44 8.8 WSW 19 28 10 15 1006.0 - 0.0
27/12:30pm 31.4 29.9 17.7 44 8.8 SW 22 33 12 18 1006.3 - 0.0
27/12:00pm 31.1 30.9 18.4 46 8.2 WSW 17 24 9 13 1006.8 1006.7 0.0
27/11:30am 30.9 30.0 18.2 46 8.2 SW 20 30 11 16 1007.2 - 0.0
27/11:00am 29.7 28.8 18.2 50 7.4 WSW 20 28 11 15 1007.5 - 0.0
27/10:30am 29.6 28.8 18.4 51 7.2 WSW 20 28 11 15 1007.6 - 0.0
27/10:00am 28.7 28.7 18.2 53 6.7 WSW 15 24 8 13 1007.7 - 0.0
27/09:30am 28.0 28.1 18.3 55 6.2 WSW 15 24 8 13 1007.8 - 0.0
27/09:00am 27.4 28.0 18.7 59 5.6 WSW 13 20 7 11 1007.6 1007.5 0.0

Other Formats:

Comma delimited format used in spreadsheet applications
http://www.bom.gov.au/fwo/IDW60801/IDW60801.94302.axf

JavaScript Object Notation format (JSON) in row-major order
http://www.bom.gov.au/fwo/IDW60801/IDW60801.94302.json